createdAt,value
2018-11-11T00:00:24.935Z,41.70
2018-11-11T00:02:54.853Z,34.93
2018-11-11T00:05:24.096Z,41.10
2018-11-11T00:07:53.278Z,27.00
2018-11-11T00:10:22.490Z,28.00
2018-11-11T00:12:51.675Z,23.80
2018-11-11T00:15:20.888Z,19.07
2018-11-11T00:17:50.119Z,24.00
2018-11-11T00:20:19.331Z,24.93
2018-11-11T00:22:48.538Z,25.93
2018-11-11T00:25:17.749Z,25.47
2018-11-11T00:27:46.951Z,41.00
2018-11-11T00:30:17.355Z,40.53
2018-11-11T00:32:46.568Z,33.40
2018-11-11T00:35:15.855Z,34.60
2018-11-11T00:37:45.002Z,35.07
2018-11-11T00:40:15.316Z,36.80
2018-11-11T00:42:44.910Z,31.20
2018-11-11T00:45:14.870Z,28.70
2018-11-11T00:47:44.799Z,30.33
2018-11-11T00:50:14.034Z,28.73
2018-11-11T00:52:43.238Z,25.80
2018-11-11T00:55:15.459Z,24.63
2018-11-11T00:57:45.296Z,27.25
2018-11-11T01:00:16.832Z,25.70
2018-11-11T01:02:46.382Z,31.77
2018-11-11T01:05:15.878Z,26.13
2018-11-11T01:07:45.069Z,33.17
2018-11-11T01:10:15.753Z,33.43
2018-11-11T01:12:45.350Z,32.47
2018-11-11T01:15:15.685Z,27.60
2018-11-11T01:17:44.863Z,27.50
2018-11-11T01:20:15.191Z,34.33
2018-11-11T01:22:44.903Z,25.70
2018-11-11T01:25:16.130Z,26.20
2018-11-11T01:27:45.363Z,23.90
2018-11-11T01:30:14.587Z,28.70
2018-11-11T01:32:43.787Z,27.17
2018-11-11T01:35:14.065Z,28.63
2018-11-11T01:37:43.688Z,70.13
2018-11-11T01:40:13.072Z,34.20
2018-11-11T01:42:42.271Z,41.90
2018-11-11T01:45:14.786Z,43.15
2018-11-11T01:47:44.674Z,31.53
2018-11-11T01:50:14.043Z,31.10
2018-11-11T01:52:43.236Z,25.57
2018-11-11T01:55:13.151Z,26.97
2018-11-11T01:57:42.398Z,21.90
2018-11-11T02:00:14.474Z,22.73
2018-11-11T02:02:44.139Z,21.33
2018-11-11T02:05:13.808Z,19.40
2018-11-11T02:07:44.011Z,17.23
2018-11-11T02:10:13.227Z,20.40
2018-11-11T02:12:43.455Z,20.33
2018-11-11T02:15:13.755Z,20.97
2018-11-11T02:17:42.962Z,20.67
2018-11-11T02:20:14.362Z,24.00
2018-11-11T02:22:44.303Z,21.63
2018-11-11T02:25:13.514Z,29.77
2018-11-11T02:27:42.743Z,59.20
2018-11-11T02:30:14.504Z,32.85
2018-11-11T02:32:44.014Z,27.33
2018-11-11T02:35:13.337Z,17.80
2018-11-11T02:37:42.800Z,22.17
2018-11-11T02:40:15.035Z,27.33
2018-11-11T02:42:44.534Z,47.50
2018-11-11T02:45:14.667Z,27.83
2018-11-11T02:47:43.876Z,23.27
2018-11-11T02:50:14.296Z,35.53
2018-11-11T02:52:43.955Z,22.67
2018-11-11T02:55:13.657Z,19.10
2018-11-11T02:57:43.238Z,24.27
2018-11-11T03:00:21.171Z,22.83
2018-11-11T03:02:50.604Z,26.07
2018-11-11T03:05:20.294Z,24.77
2018-11-11T03:07:49.496Z,24.37
2018-11-11T03:10:19.019Z,19.57
2018-11-11T03:12:49.116Z,30.60
2018-11-11T03:15:18.652Z,26.60
2018-11-11T03:17:47.845Z,29.83
2018-11-11T03:20:17.450Z,20.70
2018-11-11T03:22:46.638Z,25.70
2018-11-11T03:25:16.590Z,31.83
2018-11-11T03:27:47.038Z,21.03
2018-11-11T03:30:17.260Z,37.70
2018-11-11T03:32:46.499Z,31.17
2018-11-11T03:35:15.856Z,24.43
2018-11-11T03:37:45.784Z,28.57
2018-11-11T03:40:18.176Z,25.17
2018-11-11T03:42:47.750Z,37.30
2018-11-11T03:45:18.005Z,28.40
2018-11-11T03:47:48.214Z,32.60
2018-11-11T03:50:17.419Z,33.83
2018-11-11T03:52:46.817Z,29.53
2018-11-11T03:55:16.063Z,27.70
2018-11-11T03:57:45.319Z,28.33
2018-11-11T04:00:15.560Z,29.00
2018-11-11T04:02:44.819Z,38.20
2018-11-11T04:05:15.311Z,28.07
2018-11-11T04:07:45.509Z,27.73
2018-11-11T04:10:16.099Z,54.67
2018-11-11T04:12:45.702Z,25.70
2018-11-11T04:15:16.135Z,39.87
2018-11-11T04:17:45.499Z,36.03
2018-11-11T04:20:16.114Z,34.40
2018-11-11T04:22:45.343Z,29.97
2018-11-11T04:25:15.167Z,33.37
2018-11-11T04:27:44.422Z,37.87
2018-11-11T04:30:14.799Z,47.00
2018-11-11T04:32:44.165Z,26.87
2018-11-11T04:35:13.687Z,26.87
2018-11-11T04:37:42.915Z,22.87
2018-11-11T04:40:13.092Z,24.53
2018-11-11T04:42:42.491Z,26.00
2018-11-11T04:45:14.001Z,21.80
2018-11-11T04:47:43.560Z,19.83
2018-11-11T04:50:13.848Z,19.40
2018-11-11T04:52:43.587Z,17.33
2018-11-11T04:55:12.866Z,16.30
2018-11-11T04:57:42.506Z,17.63
2018-11-11T05:00:12.879Z,17.97
2018-11-11T05:02:42.364Z,16.70
2018-11-11T05:05:12.574Z,16.97
2018-11-11T05:07:42.097Z,17.60
2018-11-11T05:10:11.680Z,16.90
2018-11-11T05:12:40.906Z,15.27
2018-11-11T05:15:11.694Z,17.70
2018-11-11T05:17:40.907Z,20.30
2018-11-11T05:20:11.244Z,16.87
2018-11-11T05:22:40.534Z,17.90
2018-11-11T05:25:11.750Z,19.27
2018-11-11T05:27:41.083Z,20.27
2018-11-11T05:30:11.202Z,20.87
2018-11-11T05:32:40.674Z,19.57
2018-11-11T05:35:10.731Z,20.80
2018-11-11T05:37:40.427Z,45.98
2018-11-11T05:40:11.901Z,23.43
2018-11-11T05:42:41.883Z,17.93
2018-11-11T05:45:12.359Z,19.80
2018-11-11T05:47:41.907Z,30.53
2018-11-11T05:50:12.969Z,21.83
2018-11-11T05:52:42.803Z,81.55
2018-11-11T05:55:12.005Z,46.50
2018-11-11T05:57:41.346Z,72.33
2018-11-11T06:00:14.903Z,62.63
2018-11-11T06:02:44.490Z,160.27
2018-11-11T06:05:14.611Z,132.60
2018-11-11T06:07:43.843Z,150.97
2018-11-11T06:10:14.142Z,140.20
2018-11-11T06:12:43.390Z,57.83
2018-11-11T06:15:13.361Z,47.03
2018-11-11T06:17:42.583Z,71.60
2018-11-11T06:20:15.243Z,101.13
2018-11-11T06:22:44.487Z,160.90
2018-11-11T06:25:13.699Z,93.62
2018-11-11T06:27:42.971Z,116.97
2018-11-11T06:30:12.872Z,145.07
2018-11-11T06:32:42.274Z,110.73
2018-11-11T06:35:12.170Z,68.52
2018-11-11T06:37:41.692Z,38.43
2018-11-11T06:40:12.201Z,68.10
2018-11-11T06:42:41.854Z,56.10
2018-11-11T06:45:13.261Z,50.77
2018-11-11T06:47:43.194Z,31.37
2018-11-11T06:50:13.412Z,34.10
2018-11-11T06:52:43.106Z,23.30
2018-11-11T06:55:12.566Z,25.77
2018-11-11T06:57:41.819Z,21.57
2018-11-11T07:00:13.530Z,15.17
2018-11-11T07:03:00.048Z,14.87
2018-11-11T07:05:29.371Z,24.67
2018-11-11T07:07:58.583Z,24.07
2018-11-11T07:10:28.078Z,25.83
2018-11-11T07:12:57.999Z,11.03
2018-11-11T07:15:27.459Z,12.73
2018-11-11T07:17:56.823Z,12.07
2018-11-11T07:20:26.137Z,11.37
2018-11-11T07:22:55.577Z,10.23
2018-11-11T07:25:24.967Z,9.00
2018-11-11T07:27:54.211Z,9.83
2018-11-11T07:30:23.547Z,6.80
2018-11-11T07:32:53.004Z,5.53
2018-11-11T07:35:22.307Z,7.30
2018-11-11T07:37:51.563Z,8.03
2018-11-11T07:40:20.748Z,8.10
2018-11-11T07:42:49.934Z,9.20
2018-11-11T07:45:19.139Z,10.65
2018-11-11T07:47:48.392Z,11.90
2018-11-11T07:50:17.560Z,10.77
2018-11-11T07:52:46.766Z,9.30
2018-11-11T07:55:15.956Z,9.83
2018-11-11T07:57:45.140Z,9.70
2018-11-11T08:00:14.931Z,10.43
2018-11-11T08:02:44.350Z,11.73
2018-11-11T08:05:13.547Z,10.45
2018-11-11T08:07:42.730Z,10.63
2018-11-11T08:10:29.179Z,10.97
2018-11-11T08:12:58.374Z,11.23
2018-11-11T08:15:27.569Z,11.13
2018-11-11T08:17:57.849Z,10.35
2018-11-11T08:20:27.050Z,9.50
2018-11-11T08:22:56.295Z,10.35
2018-11-11T08:25:25.535Z,10.53
2018-11-11T08:27:54.745Z,10.93
2018-11-11T08:30:23.955Z,11.20
2018-11-11T08:32:53.187Z,11.53
2018-11-11T08:35:22.395Z,12.20
2018-11-11T08:37:51.638Z,12.33
2018-11-11T08:40:20.862Z,13.90
2018-11-11T08:42:50.070Z,13.07
2018-11-11T08:45:19.289Z,10.80
2018-11-11T08:47:48.487Z,9.17
2018-11-11T08:50:17.719Z,7.90
2018-11-11T08:52:46.931Z,7.77
2018-11-11T08:55:16.157Z,7.10
2018-11-11T08:57:45.417Z,6.67
2018-11-11T09:00:15.239Z,9.57
2018-11-11T09:02:44.443Z,7.37
2018-11-11T09:05:13.677Z,8.30
2018-11-11T09:07:42.903Z,7.40
2018-11-11T09:10:18.527Z,7.10
2018-11-11T09:12:47.751Z,7.10
2018-11-11T09:15:16.946Z,6.63
2018-11-11T09:17:46.142Z,6.60
2018-11-11T09:20:16.195Z,5.87
2018-11-11T09:22:45.396Z,6.00
2018-11-11T09:25:14.607Z,5.50
2018-11-11T09:27:43.791Z,5.47
2018-11-11T09:30:14.242Z,5.87
2018-11-11T09:32:43.697Z,6.60
2018-11-11T09:35:12.967Z,5.03
2018-11-11T09:37:42.209Z,5.73
2018-11-11T09:40:12.454Z,5.08
2018-11-11T09:42:41.752Z,5.27
2018-11-11T09:45:12.953Z,5.97
2018-11-11T09:47:42.330Z,5.27
2018-11-11T09:50:13.171Z,5.00
2018-11-11T09:52:42.423Z,5.13
2018-11-11T09:55:12.531Z,5.53
2018-11-11T09:57:41.923Z,5.87
2018-11-11T10:00:18.226Z,5.47
2018-11-11T10:02:52.472Z,7.33
2018-11-11T10:05:41.311Z,6.80
2018-11-11T10:08:47.934Z,5.90
2018-11-11T10:13:31.195Z,4.50
2018-11-11T10:16:09.664Z,4.87
2018-11-11T10:18:43.112Z,4.70
2018-11-11T10:23:22.908Z,5.43
2018-11-11T10:25:57.261Z,4.40
2018-11-11T10:28:36.825Z,8.90
2018-11-11T10:31:12.229Z,5.80
2018-11-11T10:33:45.993Z,3.92
2018-11-11T10:36:22.637Z,4.67
2018-11-11T10:38:58.904Z,4.90
2018-11-11T10:41:33.367Z,4.33
2018-11-11T10:44:04.600Z,4.22
2018-11-11T10:47:05.238Z,3.35
2018-11-11T10:49:40.195Z,3.30
2018-11-11T10:52:10.776Z,3.70
2018-11-11T10:54:40.257Z,3.07
2018-11-11T10:57:09.713Z,3.30
2018-11-11T10:59:39.048Z,3.90
2018-11-11T11:02:13.511Z,3.60
2018-11-11T11:04:48.088Z,4.55
2018-11-11T11:07:17.536Z,3.77
2018-11-11T11:09:46.847Z,2.83
2018-11-11T11:12:16.268Z,2.40
2018-11-11T11:14:45.773Z,4.95
2018-11-11T11:17:15.256Z,2.63
2018-11-11T11:19:44.595Z,3.98
2018-11-11T11:22:13.928Z,3.73
2018-11-11T11:24:43.325Z,3.65
2018-11-11T11:27:12.679Z,3.87
2018-11-11T11:29:41.998Z,3.90
2018-11-11T11:32:11.461Z,3.60
2018-11-11T11:34:40.704Z,3.30
2018-11-11T11:37:10.019Z,3.00
2018-11-11T11:39:39.359Z,2.95
2018-11-11T11:42:08.735Z,2.90
2018-11-11T11:44:38.084Z,3.22
2018-11-11T11:47:07.382Z,4.10
2018-11-11T11:49:36.750Z,2.50
2018-11-11T11:52:06.550Z,2.98
2018-11-11T11:54:35.972Z,3.25
2018-11-11T11:57:05.592Z,3.25
2018-11-11T11:59:34.871Z,3.63
2018-11-11T12:02:04.302Z,2.93
2018-11-11T12:04:34.728Z,2.35
2018-11-11T12:07:04.070Z,2.30
2018-11-11T12:09:33.393Z,3.70
2018-11-11T12:12:02.776Z,2.70
2018-11-11T12:14:32.101Z,3.83
2018-11-11T12:17:01.536Z,2.67
2018-11-11T12:19:30.837Z,2.40
2018-11-11T12:22:00.236Z,3.30
2018-11-11T12:24:29.624Z,2.60
2018-11-11T12:26:58.927Z,2.75
2018-11-11T12:29:28.251Z,2.42
2018-11-11T12:31:57.676Z,2.92
2018-11-11T12:34:27.092Z,2.87
2018-11-11T12:36:56.451Z,2.92
2018-11-11T12:39:25.898Z,3.30
2018-11-11T12:41:55.093Z,3.05
2018-11-11T12:44:24.409Z,3.00
2018-11-11T12:46:53.832Z,3.27
2018-11-11T12:49:23.059Z,3.10
2018-11-11T12:51:52.447Z,3.27
2018-11-11T12:54:21.752Z,3.30
2018-11-11T12:56:51.091Z,3.43
2018-11-11T12:59:20.381Z,3.97
2018-11-11T13:01:49.702Z,7.10
2018-11-11T13:04:19.023Z,2.85
2018-11-11T13:06:48.290Z,5.67
2018-11-11T13:09:17.587Z,3.20
2018-11-11T13:11:46.919Z,2.77
2018-11-11T13:14:16.180Z,2.63
2018-11-11T13:16:45.477Z,3.00
2018-11-11T13:19:14.947Z,3.12
2018-11-11T13:21:44.237Z,2.93
2018-11-11T13:24:13.495Z,2.30
2018-11-11T13:26:42.784Z,2.42
2018-11-11T13:29:12.111Z,2.80
2018-11-11T13:31:41.409Z,5.90
2018-11-11T13:34:10.753Z,2.77
2018-11-11T13:36:40.063Z,3.63
2018-11-11T13:39:12.091Z,4.92
2018-11-11T13:41:41.552Z,5.30
2018-11-11T13:44:10.898Z,3.12
2018-11-11T13:46:40.433Z,3.77
2018-11-11T13:49:09.536Z,3.20
2018-11-11T13:51:38.811Z,4.20
2018-11-11T13:54:08.204Z,3.17
2018-11-11T13:56:37.763Z,3.00
2018-11-11T13:59:07.328Z,3.00
2018-11-11T14:01:36.677Z,3.37
2018-11-11T14:04:05.926Z,4.97
2018-11-11T14:06:35.297Z,3.85
2018-11-11T14:09:07.821Z,4.97
2018-11-11T14:11:37.161Z,5.50
2018-11-11T14:14:07.585Z,5.13
2018-11-11T14:16:37.033Z,4.17
2018-11-11T14:19:07.067Z,5.10
2018-11-11T14:21:36.168Z,4.13
2018-11-11T14:24:05.629Z,4.80
2018-11-11T14:26:35.185Z,4.05
2018-11-11T14:29:04.537Z,5.90
2018-11-11T14:31:33.883Z,4.00
2018-11-11T14:34:03.239Z,3.53
2018-11-11T14:36:32.640Z,4.50
2018-11-11T14:39:01.991Z,3.57
2018-11-11T14:41:31.382Z,2.93
2018-11-11T14:44:00.750Z,4.70
2018-11-11T14:46:30.113Z,3.70
2018-11-11T14:48:59.449Z,3.10
2018-11-11T14:51:28.838Z,2.50
2018-11-11T14:53:58.160Z,3.67
2018-11-11T14:56:27.494Z,4.00
2018-11-11T14:58:56.921Z,3.47
2018-11-11T15:01:26.106Z,3.87
2018-11-11T15:03:55.449Z,4.60
2018-11-11T15:06:24.997Z,3.60
2018-11-11T15:08:54.431Z,5.60
2018-11-11T15:11:24.011Z,6.93
2018-11-11T15:13:53.335Z,4.93
2018-11-11T15:16:23.535Z,5.22
2018-11-11T15:18:52.887Z,5.00
2018-11-11T15:21:22.175Z,5.27
2018-11-11T15:23:51.562Z,4.30
2018-11-11T15:26:20.897Z,5.97
2018-11-11T15:28:50.277Z,5.73
2018-11-11T15:31:19.787Z,6.63
2018-11-11T15:33:49.044Z,4.63
2018-11-11T15:36:18.367Z,5.72
2018-11-11T15:38:47.672Z,6.70
2018-11-11T15:41:17.032Z,4.17
2018-11-11T15:43:46.265Z,5.53
2018-11-11T15:46:15.605Z,4.70
2018-11-11T15:48:44.894Z,5.83
2018-11-11T15:51:14.278Z,5.37
2018-11-11T15:53:43.723Z,4.60
2018-11-11T15:56:13.140Z,5.63
2018-11-11T15:58:42.477Z,6.30
2018-11-11T16:01:11.768Z,5.27
2018-11-11T16:03:41.110Z,5.77
2018-11-11T16:06:10.466Z,5.13
2018-11-11T16:08:39.798Z,5.67
2018-11-11T16:11:09.337Z,5.60
2018-11-11T16:13:38.609Z,5.47
2018-11-11T16:16:08.049Z,6.13
2018-11-11T16:18:37.405Z,7.17
2018-11-11T16:21:06.920Z,5.60
2018-11-11T16:23:36.373Z,6.53
2018-11-11T16:26:05.902Z,6.00
2018-11-11T16:28:35.278Z,8.50
2018-11-11T16:31:05.034Z,8.70
2018-11-11T16:33:34.507Z,10.30
2018-11-11T16:36:04.050Z,10.67
2018-11-11T16:38:33.446Z,10.83
2018-11-11T16:41:02.974Z,10.63
2018-11-11T16:43:32.244Z,6.77
2018-11-11T16:46:01.545Z,7.40
2018-11-11T16:48:30.879Z,7.03
2018-11-11T16:51:00.192Z,7.87
2018-11-11T16:53:29.445Z,9.40
2018-11-11T16:55:58.828Z,7.17
2018-11-11T16:58:28.235Z,5.93
2018-11-11T17:00:57.615Z,8.00
2018-11-11T17:03:26.953Z,7.80
2018-11-11T17:05:56.328Z,7.30
2018-11-11T17:08:25.633Z,11.47
2018-11-11T17:10:55.017Z,6.87
2018-11-11T17:13:24.464Z,6.87
2018-11-11T17:15:55.123Z,14.00
2018-11-11T17:18:24.557Z,13.90
2018-11-11T17:20:54.215Z,11.77
2018-11-11T17:23:23.613Z,13.37
2018-11-11T17:25:53.128Z,15.00
2018-11-11T17:28:22.695Z,13.90
2018-11-11T17:30:52.095Z,14.20
2018-11-11T17:33:21.505Z,12.18
2018-11-11T17:35:51.038Z,12.27
2018-11-11T17:38:20.425Z,14.97
2018-11-11T17:40:49.777Z,17.70
2018-11-11T17:43:19.144Z,20.40
2018-11-11T17:45:48.474Z,16.27
2018-11-11T17:48:17.880Z,16.07
2018-11-11T17:50:47.291Z,13.47
2018-11-11T17:53:16.708Z,14.30
2018-11-11T17:55:46.336Z,15.50
2018-11-11T17:58:15.637Z,14.33
2018-11-11T18:00:44.992Z,11.67
2018-11-11T18:03:14.533Z,12.20
2018-11-11T18:05:43.964Z,12.03
2018-11-11T18:08:13.586Z,12.50
2018-11-11T18:10:43.012Z,10.43
2018-11-11T18:13:12.316Z,11.73
2018-11-11T18:15:41.695Z,10.87
2018-11-11T18:18:11.033Z,15.43
2018-11-11T18:20:40.849Z,12.77
2018-11-11T18:23:10.134Z,14.95
2018-11-11T18:25:39.471Z,12.50
2018-11-11T18:28:08.881Z,17.50
2018-11-11T18:30:38.194Z,19.43
2018-11-11T18:33:07.587Z,19.03
2018-11-11T18:35:36.952Z,23.83
2018-11-11T18:38:06.515Z,22.20
2018-11-11T18:40:35.849Z,26.33
2018-11-11T18:43:05.807Z,23.43
2018-11-11T18:45:35.196Z,26.07
2018-11-11T18:48:04.955Z,23.87
2018-11-11T18:50:34.782Z,29.45
2018-11-11T18:53:04.644Z,24.87
2018-11-11T18:55:33.965Z,22.37
2018-11-11T18:58:03.347Z,26.42
2018-11-11T19:00:33.866Z,25.80
2018-11-11T19:03:03.248Z,28.80
2018-11-11T19:05:32.561Z,29.43
2018-11-11T19:08:01.993Z,30.47
2018-11-11T19:10:32.680Z,19.73
2018-11-11T19:13:03.484Z,16.53
2018-11-11T19:15:32.819Z,12.33
2018-11-11T19:18:02.731Z,14.15
2018-11-11T19:20:32.086Z,15.23
2018-11-11T19:23:01.424Z,20.12
2018-11-11T19:25:31.331Z,16.93
2018-11-11T19:28:01.662Z,17.43
2018-11-11T19:30:32.880Z,15.43
2018-11-11T19:33:02.215Z,21.03
2018-11-11T19:35:31.551Z,26.82
2018-11-11T19:38:00.916Z,25.13
2018-11-11T19:40:30.630Z,17.87
2018-11-11T19:43:00.964Z,19.17
2018-11-11T19:45:31.138Z,15.90
2018-11-11T19:48:00.557Z,17.37
2018-11-11T19:50:30.499Z,13.10
2018-11-11T19:53:00.173Z,28.95
2018-11-11T19:55:30.184Z,17.82
2018-11-11T19:57:59.487Z,13.97
2018-11-11T20:00:30.271Z,14.80
2018-11-11T20:03:00.709Z,14.67
2018-11-11T20:05:30.115Z,16.50
2018-11-11T20:08:00.481Z,15.03
2018-11-11T20:10:30.441Z,20.03
2018-11-11T20:13:00.475Z,18.23
2018-11-11T20:15:31.244Z,16.53
2018-11-11T20:18:00.570Z,15.28
2018-11-11T20:20:32.456Z,19.90
2018-11-11T20:23:01.762Z,16.77
2018-11-11T20:25:31.064Z,18.97
2018-11-11T20:28:00.394Z,16.80
2018-11-11T20:30:31.054Z,25.27
2018-11-11T20:33:00.363Z,23.32
2018-11-11T20:35:30.627Z,25.77
2018-11-11T20:37:59.875Z,25.07
2018-11-11T20:40:29.625Z,25.93
2018-11-11T20:42:59.336Z,21.37
2018-11-11T20:45:30.048Z,17.60
2018-11-11T20:48:00.594Z,19.33
2018-11-11T20:50:31.100Z,20.63
2018-11-11T20:53:01.672Z,20.27
2018-11-11T20:55:31.027Z,20.80
2018-11-11T20:58:00.413Z,21.03
2018-11-11T21:00:35.300Z,28.30
2018-11-11T21:03:04.817Z,46.07
2018-11-11T21:05:34.128Z,31.73
2018-11-11T21:08:03.471Z,34.93
2018-11-11T21:10:32.871Z,29.30
2018-11-11T21:13:02.224Z,24.33
2018-11-11T21:15:32.245Z,24.70
2018-11-11T21:18:01.558Z,25.30
2018-11-11T21:20:32.191Z,23.65
2018-11-11T21:23:01.487Z,27.43
2018-11-11T21:25:30.895Z,19.73
2018-11-11T21:28:00.142Z,20.53
2018-11-11T21:30:30.709Z,21.83
2018-11-11T21:32:59.998Z,20.43
2018-11-11T21:35:29.302Z,23.17
2018-11-11T21:37:58.639Z,21.10
2018-11-11T21:40:28.243Z,28.30
2018-11-11T21:42:57.855Z,23.07
2018-11-11T21:45:28.104Z,23.10
2018-11-11T21:47:57.438Z,21.33
2018-11-11T21:50:27.594Z,31.53
2018-11-11T21:53:17.579Z,22.27
2018-11-11T21:55:46.861Z,24.03
2018-11-11T21:58:16.180Z,24.63
2018-11-11T22:00:45.509Z,23.00
2018-11-11T22:03:14.799Z,24.67
2018-11-11T22:05:44.132Z,22.43
2018-11-11T22:08:13.447Z,28.05
2018-11-11T22:10:42.748Z,27.13
2018-11-11T22:13:12.083Z,25.23
2018-11-11T22:15:41.411Z,26.57
2018-11-11T22:18:10.614Z,27.07
2018-11-11T22:20:39.930Z,26.10
2018-11-11T22:23:09.247Z,24.30
2018-11-11T22:25:38.544Z,25.77
2018-11-11T22:28:07.842Z,25.77
2018-11-11T22:30:37.143Z,26.65
2018-11-11T22:33:06.456Z,25.10
2018-11-11T22:35:35.936Z,27.63
2018-11-11T22:38:05.498Z,28.13
2018-11-11T22:40:34.781Z,28.87
2018-11-11T22:43:04.015Z,35.30
2018-11-11T22:45:33.331Z,104.43
2018-11-11T22:48:02.649Z,93.37
2018-11-11T22:50:31.996Z,80.67
2018-11-11T22:53:01.359Z,120.03
2018-11-11T22:55:30.683Z,85.07
2018-11-11T22:57:59.981Z,143.17
2018-11-11T23:00:30.323Z,110.73
2018-11-11T23:02:59.672Z,129.77
2018-11-11T23:05:28.979Z,124.47
2018-11-11T23:07:58.287Z,58.37
2018-11-11T23:10:27.579Z,68.30
2018-11-11T23:12:56.881Z,75.13
2018-11-11T23:15:26.164Z,106.37
2018-11-11T23:17:55.464Z,63.23
2018-11-11T23:20:24.703Z,57.13
2018-11-11T23:22:53.980Z,47.47
2018-11-11T23:25:23.662Z,46.70
2018-11-11T23:27:52.985Z,63.20
2018-11-11T23:30:23.293Z,97.10
2018-11-11T23:32:52.776Z,58.10
2018-11-11T23:35:22.288Z,58.98
2018-11-11T23:37:51.573Z,75.93
2018-11-11T23:40:20.846Z,75.12
2018-11-11T23:42:50.121Z,159.00
2018-11-11T23:45:19.399Z,56.10
2018-11-11T23:47:48.680Z,31.67
2018-11-11T23:50:19.149Z,49.43
2018-11-11T23:52:48.798Z,48.47
2018-11-11T23:55:19.088Z,45.70
2018-11-11T23:57:48.610Z,48.37
